Time;durP1;ratioP1;P1;durP2;ratioP2;P2;SDS_P1;SDS_P2;PMS_P1;PMS_P2;Temp;Humidity;BMP_temperature;BMP_pressure;BME280_temperature;BME280_humidity;BME280_pressure;Samples;Min_cycle;Max_cycle;Signal;HPM_P1;HPM_P2
2023/06/19 00:01:46;;;;;;;9.70;4.63;;;20.50;99.90;;;;;;5006076;28;20045;-72
2023/06/19 00:04:12;;;;;;;9.57;6.45;;;20.50;99.90;;;;;;5003529;28;20045;-73
2023/06/19 00:06:37;;;;;;;6.85;4.63;;;20.50;99.90;;;;;;5006282;28;20511;-73
2023/06/19 00:09:03;;;;;;;7.00;5.45;;;20.40;99.90;;;;;;5005608;28;20053;-73
2023/06/19 00:11:29;;;;;;;7.10;5.45;;;20.50;99.90;;;;;;5005015;28;20237;-73
2023/06/19 00:13:55;;;;;;;6.63;5.00;;;20.40;99.90;;;;;;5005244;28;20054;-73
2023/06/19 00:16:21;;;;;;;6.55;5.07;;;20.40;99.90;;;;;;5005749;28;20049;-73
2023/06/19 00:18:46;;;;;;;8.48;5.72;;;20.40;99.90;;;;;;5004472;28;20050;-73
2023/06/19 00:21:12;;;;;;;7.35;5.45;;;20.40;99.90;;;;;;5004159;28;20230;-73
2023/06/19 00:23:38;;;;;;;7.95;5.75;;;20.40;99.90;;;;;;5004863;28;20038;-72
2023/06/19 00:26:04;;;;;;;8.05;5.80;;;20.40;99.90;;;;;;5005544;28;20584;-73
2023/06/19 00:28:32;;;;;;;7.10;5.25;;;20.40;99.90;;;;;;5005820;28;20042;-75
2023/06/19 00:30:58;;;;;;;9.13;5.55;;;20.30;99.90;;;;;;5005008;28;20065;-74
2023/06/19 00:33:24;;;;;;;8.20;5.30;;;20.30;99.90;;;;;;5004453;28;20078;-73
2023/06/19 00:35:54;;;;;;;8.07;5.32;;;20.30;99.90;;;;;;5003915;28;20065;-73
2023/06/19 00:38:19;;;;;;;8.20;5.05;;;20.30;99.90;;;;;;5005019;28;20046;-72
2023/06/19 00:40:45;;;;;;;9.90;5.25;;;20.30;99.90;;;;;;5005573;28;20112;-73
2023/06/19 00:43:11;;;;;;;7.70;5.80;;;20.30;99.90;;;;;;5005245;28;20033;-71
2023/06/19 00:45:37;;;;;;;7.28;4.78;;;20.30;99.90;;;;;;5004004;28;20042;-72
2023/06/19 00:48:04;;;;;;;7.07;5.32;;;20.20;99.90;;;;;;5003372;28;20072;-72
2023/06/19 00:50:31;;;;;;;6.63;5.28;;;20.30;99.90;;;;;;4987292;28;20141;-73
2023/06/19 00:52:57;;;;;;;5.63;4.63;;;20.30;99.90;;;;;;5005639;28;20045;-72
2023/06/19 00:55:28;;;;;;;7.07;5.43;;;20.30;99.90;;;;;;5003056;28;20048;-71
2023/06/19 00:57:54;;;;;;;7.60;5.13;;;20.30;99.90;;;;;;5003386;28;20497;-71
2023/06/19 01:00:20;;;;;;;6.93;4.78;;;20.30;99.90;;;;;;5003499;28;20052;-72
2023/06/19 01:02:47;;;;;;;6.45;5.00;;;20.30;99.90;;;;;;5005174;28;20041;-72
2023/06/19 01:05:13;;;;;;;6.15;4.97;;;20.30;99.90;;;;;;5100399;23;20044;-72
2023/06/19 01:07:52;;;;;;;7.50;5.07;;;20.30;99.90;;;;;;5045001;28;20033;-72
2023/06/19 01:10:27;;;;;;;7.72;4.85;;;20.30;99.90;;;;;;5045079;28;20044;-71
2023/06/19 01:13:31;;;;;;;6.88;5.28;;;20.30;99.90;;;;;;5045036;28;20044;-72
2023/06/19 01:15:57;;;;;;;6.28;4.85;;;20.30;99.90;;;;;;5027109;28;20045;-72
2023/06/19 01:18:25;;;;;;;5.80;3.90;;;20.30;99.90;;;;;;5043469;28;20045;-72
2023/06/19 01:20:50;;;;;;;7.80;5.07;;;20.30;99.90;;;;;;5044853;28;20036;-72
2023/06/19 01:23:16;;;;;;;5.72;4.15;;;20.30;99.90;;;;;;5044707;28;20616;-72
2023/06/19 01:25:41;;;;;;;5.95;4.65;;;20.30;99.90;;;;;;5043592;28;20044;-72
2023/06/19 01:28:10;;;;;;;6.00;4.82;;;20.30;99.90;;;;;;5061777;28;20045;-72
2023/06/19 01:30:38;;;;;;;6.15;4.85;;;20.30;99.90;;;;;;5044336;28;20044;-72
2023/06/19 01:33:11;;;;;;;7.25;5.07;;;20.30;99.90;;;;;;5053381;28;20036;-73
2023/06/19 01:35:41;;;;;;;6.82;4.85;;;20.30;99.90;;;;;;5063056;28;20510;-72
2023/06/19 01:38:07;;;;;;;5.60;4.10;;;20.30;99.90;;;;;;5046082;28;20051;-72
2023/06/19 01:40:35;;;;;;;5.50;4.18;;;20.30;99.90;;;;;;5044305;28;20087;-73
2023/06/19 01:43:02;;;;;;;9.93;5.72;;;20.30;99.90;;;;;;5044250;28;20094;-73
2023/06/19 01:45:29;;;;;;;6.55;4.25;;;20.30;99.90;;;;;;5043556;28;20094;-72
2023/06/19 01:47:55;;;;;;;7.30;4.78;;;20.30;99.90;;;;;;5026648;28;20045;-72
2023/06/19 01:50:23;;;;;;;8.30;4.18;;;20.30;99.90;;;;;;5042675;28;20032;-72
2023/06/19 01:52:50;;;;;;;10.38;5.00;;;20.30;99.90;;;;;;5044334;28;20048;-72
2023/06/19 01:55:16;;;;;;;7.25;5.10;;;20.30;99.90;;;;;;5043724;28;20112;-72
2023/06/19 01:57:41;;;;;;;5.75;4.85;;;20.30;99.90;;;;;;5043950;28;20128;-72
2023/06/19 02:00:07;;;;;;;5.32;3.60;;;20.30;99.90;;;;;;5043830;28;20060;-75
2023/06/19 02:02:34;;;;;;;6.97;4.88;;;20.30;99.90;;;;;;5043320;28;20491;-75
2023/06/19 02:04:59;;;;;;;8.20;4.60;;;20.30;99.90;;;;;;5042013;28;20107;-76
2023/06/19 02:07:25;;;;;;;5.65;4.75;;;20.30;99.90;;;;;;5044401;28;20044;-75
2023/06/19 02:09:50;;;;;;;7.03;4.97;;;20.30;99.90;;;;;;5047475;28;20068;-75
2023/06/19 02:12:16;;;;;;;6.72;4.70;;;20.30;99.90;;;;;;5064238;28;20033;-75
2023/06/19 02:14:42;;;;;;;6.55;4.80;;;20.30;99.90;;;;;;5062611;28;20049;-74
2023/06/19 02:17:07;;;;;;;6.07;4.85;;;20.30;99.90;;;;;;5044595;28;20097;-75
2023/06/19 02:19:33;;;;;;;5.80;4.20;;;20.30;99.90;;;;;;5042218;28;20094;-74
2023/06/19 02:21:58;;;;;;;7.30;5.60;;;20.30;99.90;;;;;;5043820;28;20469;-74
2023/06/19 02:24:24;;;;;;;8.52;5.28;;;20.30;99.90;;;;;;5042485;28;20064;-75
2023/06/19 02:26:50;;;;;;;8.48;4.97;;;20.20;99.90;;;;;;5044040;28;20178;-74
2023/06/19 02:29:16;;;;;;;6.07;4.65;;;20.20;99.90;;;;;;5043699;28;20045;-74
2023/06/19 02:31:42;;;;;;;8.15;4.50;;;20.20;99.90;;;;;;5043958;28;20543;-74
2023/06/19 02:34:08;;;;;;;8.02;5.00;;;20.20;99.90;;;;;;5041393;28;20817;-75
2023/06/19 02:36:35;;;;;;;6.18;4.70;;;20.20;99.90;;;;;;5044102;28;20054;-75
2023/06/19 02:39:01;;;;;;;6.70;4.30;;;20.10;99.90;;;;;;5043495;28;20049;-75
2023/06/19 02:41:27;;;;;;;6.80;5.30;;;20.10;99.90;;;;;;5043060;28;20402;-75
2023/06/19 02:43:52;;;;;;;8.15;5.20;;;20.10;99.90;;;;;;5043815;28;20491;-74
2023/06/19 02:46:18;;;;;;;9.18;4.72;;;20.20;99.90;;;;;;5044627;28;20124;-75
2023/06/19 02:48:43;;;;;;;8.57;5.25;;;20.10;99.90;;;;;;5046475;28;20479;-75
2023/06/19 02:51:09;;;;;;;8.38;5.05;;;20.20;99.90;;;;;;5045939;28;20049;-75
2023/06/19 02:53:35;;;;;;;10.02;5.07;;;20.20;99.90;;;;;;5059932;28;20040;-74
2023/06/19 02:56:00;;;;;;;6.20;4.68;;;20.20;99.90;;;;;;5066928;28;20081;-75
2023/06/19 02:58:26;;;;;;;6.05;4.57;;;20.20;99.90;;;;;;5065381;28;20056;-74
2023/06/19 03:00:52;;;;;;;7.35;5.15;;;20.20;99.90;;;;;;5047709;28;20029;-74
2023/06/19 03:03:18;;;;;;;8.05;5.47;;;20.10;99.90;;;;;;5046309;28;20051;-74
2023/06/19 03:05:43;;;;;;;7.30;4.93;;;20.10;99.90;;;;;;5047006;28;20064;-74
2023/06/19 03:08:09;;;;;;;9.02;4.63;;;20.10;99.90;;;;;;5045968;28;20052;-75
2023/06/19 03:10:35;;;;;;;6.95;4.95;;;20.10;99.90;;;;;;5047597;28;20040;-75
2023/06/19 03:13:00;;;;;;;9.73;5.00;;;20.00;99.90;;;;;;5044756;28;20068;-75
2023/06/19 03:15:26;;;;;;;8.48;5.35;;;20.00;99.90;;;;;;5047984;28;20560;-74
2023/06/19 03:17:54;;;;;;;7.88;4.95;;;20.00;99.90;;;;;;5046628;28;20084;-74
2023/06/19 03:20:20;;;;;;;8.25;4.18;;;20.00;99.90;;;;;;5046661;28;20041;-75
2023/06/19 03:22:46;;;;;;;9.05;4.80;;;19.90;99.90;;;;;;5029176;28;20131;-74
2023/06/19 03:25:12;;;;;;;5.93;4.38;;;19.90;99.90;;;;;;5046994;28;20045;-74
2023/06/19 03:27:37;;;;;;;6.63;4.63;;;19.90;99.90;;;;;;5045162;28;20049;-74
2023/06/19 03:30:08;;;;;;;8.30;5.70;;;19.90;99.90;;;;;;5045834;28;20041;-74
2023/06/19 03:32:34;;;;;;;7.05;4.82;;;19.90;99.90;;;;;;5046948;28;20041;-75
2023/06/19 03:35:01;;;;;;;7.38;5.35;;;19.80;99.90;;;;;;5044852;28;20115;-76
2023/06/19 03:37:27;;;;;;;8.80;5.00;;;19.80;99.90;;;;;;5047244;28;20084;-74
2023/06/19 03:39:52;;;;;;;10.20;5.47;;;19.80;99.90;;;;;;5046126;28;20069;-75
2023/06/19 03:42:18;;;;;;;6.75;5.13;;;19.80;99.90;;;;;;5045104;28;20044;-75
2023/06/19 03:44:44;;;;;;;5.97;4.32;;;19.70;99.90;;;;;;5045722;28;20044;-74
2023/06/19 03:47:09;;;;;;;6.50;5.05;;;19.70;99.90;;;;;;5046344;28;20041;-74
2023/06/19 03:49:35;;;;;;;8.52;4.65;;;19.70;99.90;;;;;;5044065;28;20132;-75
2023/06/19 03:52:00;;;;;;;5.50;3.53;;;19.70;99.90;;;;;;5045213;28;20037;-74
2023/06/19 03:54:26;;;;;;;5.05;3.30;;;19.70;99.90;;;;;;5046654;28;20407;-74
2023/06/19 03:56:52;;;;;;;4.10;2.50;;;19.70;99.90;;;;;;5046438;28;20056;-75
2023/06/19 03:59:17;;;;;;;2.47;2.25;;;19.60;99.90;;;;;;5045136;28;20040;-74
2023/06/19 04:01:43;;;;;;;4.35;2.28;;;19.70;99.90;;;;;;5046082;28;20730;-74
2023/06/19 04:04:09;;;;;;;3.13;2.47;;;19.70;99.90;;;;;;5056629;28;20140;-75
2023/06/19 04:06:35;;;;;;;3.70;1.92;;;19.70;99.90;;;;;;5066129;28;20084;-74
2023/06/19 04:09:00;;;;;;;3.20;2.20;;;19.70;99.90;;;;;;5049391;28;20033;-76
2023/06/19 04:11:26;;;;;;;3.08;2.05;;;19.70;99.90;;;;;;5046331;28;20064;-74
2023/06/19 04:13:51;;;;;;;4.20;1.90;;;19.70;99.90;;;;;;5044698;28;20037;-74
2023/06/19 04:16:17;;;;;;;4.25;2.28;;;19.70;99.90;;;;;;5044721;28;20396;-74
2023/06/19 04:18:43;;;;;;;2.75;2.03;;;19.70;99.90;;;;;;5027216;28;20520;-75
2023/06/19 04:21:08;;;;;;;2.65;1.70;;;19.70;99.90;;;;;;5045314;28;20651;-75
2023/06/19 04:23:34;;;;;;;3.60;1.90;;;19.70;99.90;;;;;;5044868;28;20077;-75
2023/06/19 04:25:59;;;;;;;3.63;2.22;;;19.70;99.90;;;;;;5027714;28;20471;-76
2023/06/19 04:28:26;;;;;;;4.07;1.58;;;19.80;99.90;;;;;;5046093;28;20041;-75
2023/06/19 04:30:59;;;;;;;3.20;1.80;;;19.80;99.90;;;;;;5045709;28;20526;-75
2023/06/19 04:33:29;;;;;;;3.47;2.20;;;19.80;99.90;;;;;;5045132;28;20049;-75
2023/06/19 04:35:55;;;;;;;3.28;1.75;;;19.80;99.90;;;;;;5055412;28;20040;-74
2023/06/19 04:38:23;;;;;;;2.53;2.17;;;19.80;99.90;;;;;;5064298;28;20059;-74
2023/06/19 04:40:53;;;;;;;4.53;2.00;;;19.80;99.90;;;;;;5052597;28;20906;-74
2023/06/19 04:43:18;;;;;;;3.63;2.70;;;19.80;99.90;;;;;;5026803;28;20057;-75
2023/06/19 04:45:44;;;;;;;3.40;2.15;;;19.80;99.90;;;;;;5044148;28;20459;-74
2023/06/19 04:48:11;;;;;;;4.20;3.08;;;19.80;99.90;;;;;;5043262;28;20048;-75
2023/06/19 04:50:37;;;;;;;4.30;3.00;;;19.80;99.90;;;;;;5044275;28;20094;-73
2023/06/19 04:53:02;;;;;;;3.22;2.40;;;19.80;99.90;;;;;;5047269;28;20049;-75
2023/06/19 04:55:28;;;;;;;4.90;2.95;;;19.90;99.90;;;;;;5045767;28;20099;-74
2023/06/19 04:57:54;;;;;;;3.72;2.38;;;19.80;99.90;;;;;;5045075;28;20051;-73
2023/06/19 05:00:21;;;;;;;5.45;2.55;;;19.90;99.90;;;;;;5053635;28;20055;-74
2023/06/19 05:02:47;;;;;;;7.85;2.88;;;19.90;99.90;;;;;;5045703;28;20049;-75
2023/06/19 05:05:13;;;;;;;4.72;2.30;;;19.90;99.90;;;;;;5029059;28;20063;-74
2023/06/19 05:07:39;;;;;;;3.28;2.15;;;19.90;99.90;;;;;;5046763;28;20124;-74
2023/06/19 05:10:06;;;;;;;4.95;2.92;;;19.90;99.90;;;;;;5035071;28;20519;-75
2023/06/19 05:12:31;;;;;;;4.72;3.00;;;19.90;99.90;;;;;;5044036;28;20049;-75
2023/06/19 05:14:57;;;;;;;9.27;4.53;;;19.90;99.90;;;;;;5044790;28;20059;-74
2023/06/19 05:17:22;;;;;;;7.97;4.07;;;19.90;99.90;;;;;;5041792;28;20045;-76
2023/06/19 05:19:48;;;;;;;7.90;3.97;;;19.90;99.90;;;;;;5026326;28;20045;-75
2023/06/19 05:22:14;;;;;;;8.75;5.43;;;19.90;99.90;;;;;;5040695;28;20048;-75
2023/06/19 05:24:39;;;;;;;8.30;4.80;;;19.90;99.90;;;;;;5042466;28;20053;-75
2023/06/19 05:27:05;;;;;;;8.73;5.15;;;19.90;99.90;;;;;;5043516;28;20140;-75
2023/06/19 05:29:32;;;;;;;9.80;5.88;;;19.90;99.90;;;;;;5044921;28;20047;-74
2023/06/19 05:31:57;;;;;;;11.95;6.53;;;19.90;99.90;;;;;;5046502;28;20047;-74
2023/06/19 05:34:23;;;;;;;14.40;7.90;;;19.90;99.90;;;;;;5038089;28;20053;-75
2023/06/19 05:36:49;;;;;;;14.82;8.25;;;19.90;99.90;;;;;;5040710;28;21058;-74
2023/06/19 05:39:14;;;;;;;15.95;8.32;;;20.00;99.90;;;;;;5046991;28;20095;-74
2023/06/19 05:41:40;;;;;;;16.77;10.10;;;20.00;99.90;;;;;;5025862;28;20067;-74
2023/06/19 05:44:06;;;;;;;19.42;10.68;;;20.00;99.90;;;;;;5044168;28;20079;-74
2023/06/19 05:46:31;;;;;;;17.63;10.10;;;20.00;99.90;;;;;;5039308;28;20120;-74
2023/06/19 05:48:57;;;;;;;20.92;11.45;;;20.00;99.90;;;;;;5045527;28;20036;-77
2023/06/19 05:51:23;;;;;;;19.27;12.05;;;20.00;99.90;;;;;;5048924;28;20560;-73
2023/06/19 05:53:49;;;;;;;20.48;11.23;;;20.10;99.90;;;;;;5059985;28;20451;-76
2023/06/19 05:56:15;;;;;;;22.65;12.25;;;20.10;99.90;;;;;;5049869;28;20523;-76
2023/06/19 05:58:41;;;;;;;22.02;12.77;;;20.10;99.90;;;;;;5044041;28;20037;-76
2023/06/19 06:01:07;;;;;;;21.95;12.77;;;20.10;99.90;;;;;;5042993;28;20037;-75
2023/06/19 06:03:33;;;;;;;22.25;12.50;;;20.10;99.90;;;;;;5062507;28;20525;-76
2023/06/19 06:06:02;;;;;;;19.75;11.95;;;20.00;99.90;;;;;;5061050;28;20056;-75
2023/06/19 06:08:31;;;;;;;23.60;12.52;;;20.00;99.90;;;;;;5062851;28;20052;-76
2023/06/19 06:10:57;;;;;;;22.10;12.27;;;20.00;99.90;;;;;;5050726;28;20152;-75
2023/06/19 06:13:23;;;;;;;22.67;11.93;;;20.00;99.90;;;;;;5043648;28;20507;-74
2023/06/19 06:15:49;;;;;;;20.10;11.40;;;20.00;99.90;;;;;;5050758;28;20538;-77
2023/06/19 06:18:15;;;;;;;25.40;13.40;;;20.00;99.90;;;;;;5055401;28;20049;-75
2023/06/19 06:20:41;;;;;;;22.65;12.45;;;20.00;99.90;;;;;;5060195;28;20041;-74
2023/06/19 06:23:06;;;;;;;22.02;12.52;;;20.00;99.90;;;;;;5059126;28;20369;-73
2023/06/19 06:25:32;;;;;;;26.60;13.68;;;20.00;99.90;;;;;;5052240;28;20037;-76
2023/06/19 06:27:57;;;;;;;23.45;13.50;;;20.00;99.90;;;;;;5042803;28;20204;-75
2023/06/19 06:30:23;;;;;;;23.20;13.65;;;20.00;99.90;;;;;;5043396;28;20411;-74
2023/06/19 06:32:49;;;;;;;26.77;13.00;;;20.00;99.90;;;;;;5055301;28;20123;-75
2023/06/19 06:35:15;;;;;;;22.30;12.75;;;20.00;99.90;;;;;;5055139;28;20542;-74
2023/06/19 06:37:41;;;;;;;22.45;12.15;;;20.00;99.90;;;;;;5044420;28;20098;-75
2023/06/19 06:40:10;;;;;;;24.75;13.57;;;20.00;99.90;;;;;;5041046;28;20036;-75
2023/06/19 06:42:37;;;;;;;26.15;13.65;;;20.00;99.90;;;;;;5061920;28;20458;-74
2023/06/19 06:45:05;;;;;;;30.30;12.95;;;20.00;99.90;;;;;;5062926;28;20476;-74
2023/06/19 06:47:30;;;;;;;23.88;12.50;;;20.00;99.90;;;;;;5060379;28;20405;-73
2023/06/19 06:49:56;;;;;;;26.38;12.95;;;19.90;99.90;;;;;;5049312;28;20100;-75
2023/06/19 06:52:22;;;;;;;23.40;11.02;;;19.90;99.90;;;;;;5040922;28;20481;-76
2023/06/19 06:54:47;;;;;;;22.20;11.18;;;19.80;99.90;;;;;;5025154;28;20451;-76
2023/06/19 06:57:13;;;;;;;19.05;10.68;;;19.80;99.90;;;;;;5052379;28;20049;-75
2023/06/19 06:59:38;;;;;;;19.38;11.15;;;19.70;99.90;;;;;;5061491;28;20041;-76
2023/06/19 07:02:04;;;;;;;24.48;10.18;;;19.70;99.90;;;;;;5050045;28;20045;-75
2023/06/19 07:04:30;;;;;;;23.50;11.52;;;19.60;99.90;;;;;;5040635;28;20059;-74
2023/06/19 07:06:55;;;;;;;21.20;9.77;;;19.60;99.90;;;;;;5028607;28;20059;-75
2023/06/19 07:09:21;;;;;;;21.75;10.07;;;19.50;99.90;;;;;;5024259;28;20063;-76
2023/06/19 07:11:46;;;;;;;26.33;11.88;;;19.50;99.90;;;;;;5042735;28;20091;-74
2023/06/19 07:14:12;;;;;;;25.42;11.68;;;19.40;99.90;;;;;;5060113;28;20043;-75
2023/06/19 07:16:38;;;;;;;24.33;10.60;;;19.40;99.90;;;;;;5054175;28;20091;-76
2023/06/19 07:19:03;;;;;;;22.98;10.38;;;19.40;99.90;;;;;;5041412;28;20040;-75
2023/06/19 07:21:30;;;;;;;23.08;9.95;;;19.40;99.90;;;;;;5041373;28;20406;-75
2023/06/19 07:23:56;;;;;;;23.02;10.63;;;19.40;99.90;;;;;;5057875;28;20052;-76
2023/06/19 07:26:21;;;;;;;22.90;9.30;;;19.40;99.90;;;;;;5039806;28;20044;-74
2023/06/19 07:28:47;;;;;;;26.45;10.65;;;19.40;99.90;;;;;;5036015;28;20549;-74
2023/06/19 07:31:12;;;;;;;19.95;9.65;;;19.40;99.90;;;;;;5061871;28;20088;-75
2023/06/19 07:33:38;;;;;;;25.73;9.82;;;19.40;99.90;;;;;;5063256;28;20048;-74
2023/06/19 07:36:04;;;;;;;25.38;9.77;;;19.30;99.90;;;;;;5057422;28;20385;-74
2023/06/19 07:38:30;;;;;;;25.27;10.75;;;19.30;99.90;;;;;;5044736;28;20055;-75
2023/06/19 07:40:55;;;;;;;22.33;8.93;;;19.30;99.90;;;;;;5045179;28;20045;-74
2023/06/19 07:43:24;;;;;;;21.13;9.95;;;19.30;99.90;;;;;;5054690;28;20040;-75
2023/06/19 07:45:49;;;;;;;22.00;9.80;;;19.30;99.90;;;;;;5044424;28;20055;-75
2023/06/19 07:48:15;;;;;;;17.92;8.85;;;19.30;99.90;;;;;;5046845;28;20040;-75
2023/06/19 07:50:41;;;;;;;18.33;9.25;;;19.30;99.90;;;;;;5058951;28;20049;-74
2023/06/19 07:53:06;;;;;;;24.80;8.93;;;19.30;99.90;;;;;;5046125;28;20270;-75
2023/06/19 07:55:34;;;;;;;18.15;8.23;;;19.30;99.90;;;;;;5045589;28;20041;-75
2023/06/19 07:58:00;;;;;;;20.92;9.10;;;19.30;99.90;;;;;;5044299;28;20114;-76
2023/06/19 08:00:26;;;;;;;16.35;8.45;;;19.20;99.90;;;;;;5045551;28;20075;-74
2023/06/19 08:02:51;;;;;;;16.70;9.00;;;19.20;99.90;;;;;;5038382;28;20502;-74
2023/06/19 08:05:17;;;;;;;14.55;7.25;;;19.20;99.90;;;;;;5049174;28;20056;-75
2023/06/19 08:07:42;;;;;;;16.38;8.30;;;19.10;99.90;;;;;;5055786;28;20053;-74
2023/06/19 08:10:08;;;;;;;15.35;7.53;;;19.10;99.90;;;;;;5045375;28;20518;-80
2023/06/19 08:12:34;;;;;;;11.50;6.63;;;19.00;99.90;;;;;;5062635;28;20406;-87
2023/06/19 08:15:00;;;;;;;14.60;7.05;;;19.10;99.90;;;;;;5063536;28;20043;-74
2023/06/19 08:17:25;;;;;;;13.15;7.15;;;19.00;99.90;;;;;;5063665;28;20044;-74
2023/06/19 08:19:51;;;;;;;14.18;7.28;;;19.00;99.90;;;;;;5050849;28;20127;-74
2023/06/19 08:22:16;;;;;;;12.20;6.82;;;19.00;99.90;;;;;;5045079;28;20509;-73
2023/06/19 08:24:42;;;;;;;11.23;6.90;;;19.00;99.90;;;;;;5054934;28;20036;-74
2023/06/19 08:27:08;;;;;;;13.02;7.32;;;19.00;99.90;;;;;;5064662;28;20045;-75
2023/06/19 08:29:33;;;;;;;15.30;7.50;;;19.00;99.90;;;;;;5063219;28;20040;-73
2023/06/19 08:31:59;;;;;;;14.85;7.60;;;19.00;99.90;;;;;;5048828;28;20085;-74
2023/06/19 08:34:25;;;;;;;13.82;7.55;;;19.00;99.90;;;;;;5062732;28;20055;-75
2023/06/19 08:36:51;;;;;;;14.18;7.45;;;19.00;99.90;;;;;;5064616;28;20044;-73
2023/06/19 08:39:17;;;;;;;14.90;8.02;;;19.00;99.90;;;;;;5059382;28;20033;-74
2023/06/19 08:41:42;;;;;;;16.48;7.43;;;19.00;99.90;;;;;;5035005;28;20052;-74
2023/06/19 08:44:09;;;;;;;16.83;7.80;;;19.00;99.90;;;;;;5063607;28;20119;-74
2023/06/19 08:46:37;;;;;;;16.65;8.43;;;19.00;99.90;;;;;;5046733;28;20040;-73
2023/06/19 08:49:06;;;;;;;17.45;8.05;;;19.00;99.90;;;;;;5062329;28;20275;-75
2023/06/19 08:51:32;;;;;;;16.23;7.70;;;19.00;99.90;;;;;;5052572;28;20045;-75
2023/06/19 08:54:03;;;;;;;13.25;7.20;;;19.00;99.90;;;;;;5043517;28;20098;-75
2023/06/19 08:56:33;;;;;;;12.95;6.43;;;19.00;99.90;;;;;;5043213;28;20773;-74
2023/06/19 08:59:17;;;;;;;12.33;7.07;;;19.00;99.90;;;;;;5044978;28;20057;-76
2023/06/19 09:01:54;;;;;;;14.48;7.40;;;19.00;99.90;;;;;;5015769;28;20075;-75
2023/06/19 09:04:22;;;;;;;12.90;7.13;;;19.00;99.90;;;;;;5042297;28;20168;-75
2023/06/19 09:06:48;;;;;;;12.30;7.18;;;19.00;99.90;;;;;;5042965;28;20080;-75
2023/06/19 09:09:15;;;;;;;13.63;7.40;;;19.10;99.90;;;;;;5043981;28;20033;-73
2023/06/19 09:11:43;;;;;;;15.52;6.70;;;19.10;99.90;;;;;;5061630;28;20043;-76
2023/06/19 09:14:10;;;;;;;13.55;7.30;;;19.10;99.90;;;;;;5063863;28;20041;-73
2023/06/19 09:16:40;;;;;;;14.13;7.97;;;19.10;99.90;;;;;;5063795;28;20040;-75
2023/06/19 09:19:06;;;;;;;14.85;7.45;;;19.10;99.90;;;;;;5062584;28;20040;-74
2023/06/19 09:21:34;;;;;;;17.42;6.78;;;19.10;99.90;;;;;;5042491;28;20097;-74
2023/06/19 09:24:07;;;;;;;12.98;6.95;;;19.10;99.90;;;;;;5042489;28;20537;-76
2023/06/19 09:26:34;;;;;;;15.38;7.72;;;19.10;99.90;;;;;;5043773;28;20059;-75
2023/06/19 09:29:13;;;;;;;12.95;6.93;;;19.10;99.90;;;;;;5042932;28;20056;-75
2023/06/19 09:31:41;;;;;;;14.70;7.13;;;19.10;99.90;;;;;;5022291;28;20770;-75
2023/06/19 09:34:07;;;;;;;16.45;7.60;;;19.00;99.90;;;;;;5022433;28;20805;-75
2023/06/19 09:36:34;;;;;;;14.52;8.15;;;19.00;99.90;;;;;;5027090;28;20063;-73
2023/06/19 09:39:01;;;;;;;12.80;8.02;;;19.00;99.90;;;;;;5043330;28;20490;-74
2023/06/19 09:41:29;;;;;;;12.00;6.90;;;19.00;99.90;;;;;;5062885;28;20051;-75
2023/06/19 09:43:59;;;;;;;11.73;6.85;;;19.00;99.90;;;;;;5063297;28;20037;-76
2023/06/19 09:46:33;;;;;;;14.38;7.30;;;19.00;99.90;;;;;;5062309;28;20040;-75
2023/06/19 09:49:01;;;;;;;12.57;6.72;;;19.10;99.90;;;;;;5062910;28;20048;-75
2023/06/19 09:51:33;;;;;;;15.27;7.40;;;19.00;99.90;;;;;;5044760;28;20049;-75
2023/06/19 09:54:00;;;;;;;12.15;7.07;;;19.00;99.90;;;;;;5044047;28;20033;-75
2023/06/19 09:56:27;;;;;;;13.77;7.90;;;19.00;99.90;;;;;;5043934;28;20072;-74
2023/06/19 09:58:57;;;;;;;17.98;9.75;;;19.10;99.90;;;;;;5063112;28;20071;-75
2023/06/19 10:01:24;;;;;;;15.30;8.55;;;19.10;99.90;;;;;;5038239;28;20353;-75
2023/06/19 10:03:49;;;;;;;13.90;7.82;;;19.10;99.90;;;;;;5023109;28;20734;-75
2023/06/19 10:06:16;;;;;;;17.45;8.13;;;19.20;99.90;;;;;;5045995;28;20107;-75
2023/06/19 10:08:43;;;;;;;14.07;7.53;;;19.20;99.90;;;;;;5057633;28;20044;-76
2023/06/19 10:11:10;;;;;;;16.15;8.27;;;19.30;99.90;;;;;;5062133;28;20453;-80
2023/06/19 10:13:39;;;;;;;13.75;8.23;;;19.40;99.90;;;;;;5062100;28;20041;-75
2023/06/19 10:16:05;;;;;;;15.20;7.68;;;19.50;99.90;;;;;;5045153;28;20060;-75
2023/06/19 10:18:49;;;;;;;12.70;7.32;;;19.60;99.90;;;;;;5041107;28;20120;-74
2023/06/19 10:21:18;;;;;;;15.30;6.97;;;19.70;99.90;;;;;;5050082;28;20037;-74
2023/06/19 10:23:57;;;;;;;18.35;8.10;;;19.70;99.90;;;;;;5048392;28;20044;-75
2023/06/19 10:26:42;;;;;;;15.00;9.35;;;19.70;99.90;;;;;;5062622;28;20083;-75
2023/06/19 10:29:16;;;;;;;13.05;7.95;;;19.80;99.90;;;;;;5061366;28;20056;-74
2023/06/19 10:31:41;;;;;;;13.13;7.78;;;19.80;99.90;;;;;;5055372;28;20051;-75
2023/06/19 10:34:07;;;;;;;15.57;7.55;;;19.90;99.90;;;;;;5040951;28;20041;-74
2023/06/19 10:36:33;;;;;;;17.92;8.38;;;19.90;99.90;;;;;;5041640;28;20108;-74
2023/06/19 10:38:58;;;;;;;19.55;8.48;;;19.90;99.90;;;;;;5060290;28;20044;-74
2023/06/19 10:41:25;;;;;;;15.65;8.05;;;19.90;99.90;;;;;;5063143;28;20033;-74
2023/06/19 10:43:59;;;;;;;18.45;8.90;;;20.00;99.90;;;;;;5061930;28;20494;-75
2023/06/19 10:46:30;;;;;;;16.73;8.23;;;20.00;99.90;;;;;;5061791;28;20054;-75
2023/06/19 10:49:00;;;;;;;16.60;7.85;;;20.00;99.90;;;;;;5045951;28;20169;-75
2023/06/19 10:51:27;;;;;;;22.38;9.68;;;20.00;99.90;;;;;;5042245;28;20041;-74
2023/06/19 10:53:57;;;;;;;19.98;9.57;;;20.00;99.90;;;;;;5047377;28;20060;-72
2023/06/19 10:56:23;;;;;;;18.35;8.15;;;20.00;99.90;;;;;;5050606;28;20053;-72
2023/06/19 10:58:59;;;;;;;22.83;9.55;;;20.10;99.90;;;;;;5048445;28;20526;-73
2023/06/19 11:01:38;;;;;;;21.77;9.73;;;20.10;99.90;;;;;;5042799;28;20496;-73
2023/06/19 11:04:05;;;;;;;18.88;9.02;;;20.00;99.90;;;;;;5044339;28;20049;-73
2023/06/19 11:06:31;;;;;;;14.40;8.57;;;20.00;99.90;;;;;;5052020;28;20068;-74
2023/06/19 11:08:57;;;;;;;12.90;8.38;;;20.00;99.90;;;;;;5047253;28;20032;-72
2023/06/19 11:11:23;;;;;;;14.23;7.82;;;20.10;99.90;;;;;;5028790;28;20041;-74
2023/06/19 11:13:48;;;;;;;15.27;7.57;;;20.10;99.90;;;;;;5032172;28;20124;-75
2023/06/19 11:16:14;;;;;;;14.38;8.93;;;20.10;99.90;;;;;;5046211;28;20075;-75
2023/06/19 11:18:40;;;;;;;16.45;8.13;;;20.20;99.90;;;;;;5045698;28;20037;-75
2023/06/19 11:21:06;;;;;;;16.88;7.95;;;20.20;99.90;;;;;;5045867;28;20048;-75
2023/06/19 11:23:31;;;;;;;15.07;8.07;;;20.20;99.90;;;;;;5028723;28;20125;-75
2023/06/19 11:26:04;;;;;;;12.32;6.68;;;20.30;99.90;;;;;;5043011;28;20068;-75
2023/06/19 11:28:30;;;;;;;14.75;7.55;;;20.30;99.90;;;;;;5066497;28;20481;-76
2023/06/19 11:31:01;;;;;;;11.82;6.90;;;20.40;99.90;;;;;;5066502;28;20044;-74
2023/06/19 11:33:26;;;;;;;11.05;6.32;;;20.40;99.90;;;;;;5064465;28;20053;-74
2023/06/19 11:35:54;;;;;;;12.43;7.05;;;20.40;99.90;;;;;;5064635;28;20380;-74
2023/06/19 11:38:22;;;;;;;10.93;6.57;;;20.50;99.90;;;;;;5065930;28;20136;-74
2023/06/19 11:40:48;;;;;;;10.63;7.20;;;20.50;99.90;;;;;;5059329;28;20061;-74
2023/06/19 11:43:30;;;;;;;11.30;6.07;;;20.50;99.90;;;;;;5048318;28;20044;-75
2023/06/19 11:46:06;;;;;;;8.90;6.32;;;20.60;99.90;;;;;;5064845;28;20107;-75
2023/06/19 11:48:32;;;;;;;9.45;6.20;;;20.60;99.90;;;;;;5063691;28;20548;-75
2023/06/19 11:50:58;;;;;;;13.07;7.63;;;20.60;99.90;;;;;;5065181;28;20048;-74
2023/06/19 11:53:25;;;;;;;10.18;5.82;;;20.70;99.90;;;;;;5065602;28;20048;-75
2023/06/19 11:55:51;;;;;;;11.73;6.07;;;20.70;99.90;;;;;;5054448;28;20418;-74
2023/06/19 11:58:19;;;;;;;8.82;5.38;;;20.70;99.90;;;;;;5042644;28;20148;-76
2023/06/19 12:00:45;;;;;;;9.27;5.90;;;20.70;99.90;;;;;;5025882;28;20045;-75
2023/06/19 12:03:11;;;;;;;9.48;5.70;;;20.70;99.90;;;;;;5044763;28;20390;-75
2023/06/19 12:05:37;;;;;;;8.25;5.53;;;20.80;99.90;;;;;;5045684;28;20106;-74
2023/06/19 12:08:04;;;;;;;8.43;5.07;;;20.90;99.90;;;;;;5045262;28;20041;-74
2023/06/19 12:10:30;;;;;;;8.25;5.25;;;20.90;99.90;;;;;;5052623;28;20036;-76
2023/06/19 12:12:56;;;;;;;10.15;5.65;;;20.90;99.90;;;;;;5061684;28;20055;-75
2023/06/19 12:15:21;;;;;;;8.63;4.75;;;21.00;99.90;;;;;;5037539;28;20037;-74
2023/06/19 12:17:47;;;;;;;9.95;4.70;;;21.10;99.90;;;;;;5039613;28;20562;-74
2023/06/19 12:20:15;;;;;;;7.05;4.75;;;21.10;99.90;;;;;;5052971;28;20044;-74
2023/06/19 12:22:42;;;;;;;9.10;4.93;;;21.20;99.90;;;;;;5042956;28;20127;-74
2023/06/19 12:25:08;;;;;;;8.25;4.95;;;21.20;99.90;;;;;;5044114;28;20060;-74
2023/06/19 12:27:34;;;;;;;11.95;5.22;;;21.30;99.90;;;;;;5045872;28;20131;-74
2023/06/19 12:30:00;;;;;;;9.18;5.78;;;21.20;99.90;;;;;;5046003;28;20112;-77
2023/06/19 12:32:25;;;;;;;7.07;4.90;;;21.30;99.90;;;;;;5049891;28;20048;-75
2023/06/19 12:34:53;;;;;;;9.65;5.65;;;21.30;99.90;;;;;;5052615;28;20020;-75
2023/06/19 12:37:20;;;;;;;9.90;4.85;;;21.30;99.90;;;;;;5064847;28;20074;-76
2023/06/19 12:39:49;;;;;;;9.50;5.40;;;21.30;99.90;;;;;;5060930;28;20298;-79